sensor_id;sensor_type;location;lat;lon;timestamp;P1;P2;P0
50866;PMS7003;36839;51.946;21.002;2023-04-25T00:01:17;35.00;31.00;21.00
50866;PMS7003;36839;51.946;21.002;2023-04-25T00:03:45;39.00;33.00;22.00
50866;PMS7003;36839;51.946;21.002;2023-04-25T00:06:13;37.50;33.00;23.00
50866;PMS7003;36839;51.946;21.002;2023-04-25T00:08:41;34.33;32.00;22.33
50866;PMS7003;36839;51.946;21.002;2023-04-25T00:11:09;41.50;33.00;23.50
50866;PMS7003;36839;51.946;21.002;2023-04-25T00:13:36;48.00;35.00;23.00
50866;PMS7003;36839;51.946;21.002;2023-04-25T00:16:22;40.50;34.50;22.50
50866;PMS7003;36839;51.946;21.002;2023-04-25T00:18:59;35.00;33.00;22.50
50866;PMS7003;36839;51.946;21.002;2023-04-25T00:21:31;42.00;37.00;25.00
50866;PMS7003;36839;51.946;21.002;2023-04-25T00:23:59;46.33;37.33;26.33
50866;PMS7003;36839;51.946;21.002;2023-04-25T00:26:30;41.00;32.50;23.00
50866;PMS7003;36839;51.946;21.002;2023-04-25T00:28:57;42.00;33.00;24.00
50866;PMS7003;36839;51.946;21.002;2023-04-25T00:31:24;41.00;36.00;24.00
50866;PMS7003;36839;51.946;21.002;2023-04-25T00:33:53;35.00;33.00;22.33
50866;PMS7003;36839;51.946;21.002;2023-04-25T00:36:21;41.00;34.00;25.00
50866;PMS7003;36839;51.946;21.002;2023-04-25T00:38:51;44.00;36.00;27.00
50866;PMS7003;36839;51.946;21.002;2023-04-25T00:41:19;45.00;38.00;26.00
50866;PMS7003;36839;51.946;21.002;2023-04-25T00:43:46;40.50;34.00;24.00
50866;PMS7003;36839;51.946;21.002;2023-04-25T00:46:14;44.00;34.00;23.00
50866;PMS7003;36839;51.946;21.002;2023-04-25T00:48:41;34.00;31.00;23.00
50866;PMS7003;36839;51.946;21.002;2023-04-25T00:51:08;35.00;31.00;23.00
50866;PMS7003;36839;51.946;21.002;2023-04-25T00:53:37;34.00;31.00;23.00
50866;PMS7003;36839;51.946;21.002;2023-04-25T00:56:18;42.00;31.00;22.00
50866;PMS7003;36839;51.946;21.002;2023-04-25T00:58:46;40.00;33.00;23.00
50866;PMS7003;36839;51.946;21.002;2023-04-25T01:01:14;40.50;31.00;23.00
50866;PMS7003;36839;51.946;21.002;2023-04-25T01:03:45;25.50;23.00;14.00
50866;PMS7003;36839;51.946;21.002;2023-04-25T01:06:14;31.00;28.00;21.00
50866;PMS7003;36839;51.946;21.002;2023-04-25T01:08:41;35.00;30.50;23.00
50866;PMS7003;36839;51.946;21.002;2023-04-25T01:11:10;41.00;33.00;23.00
50866;PMS7003;36839;51.946;21.002;2023-04-25T01:13:38;41.00;34.50;24.00
50866;PMS7003;36839;51.946;21.002;2023-04-25T01:16:07;38.00;33.00;23.00
50866;PMS7003;36839;51.946;21.002;2023-04-25T01:18:36;34.00;29.00;22.00
50866;PMS7003;36839;51.946;21.002;2023-04-25T01:21:09;33.50;31.00;21.50
50866;PMS7003;36839;51.946;21.002;2023-04-25T01:23:37;32.50;28.50;19.50
50866;PMS7003;36839;51.946;21.002;2023-04-25T01:26:05;36.50;32.50;23.00
50866;PMS7003;36839;51.946;21.002;2023-04-25T01:28:33;34.00;30.00;23.00
50866;PMS7003;36839;51.946;21.002;2023-04-25T01:31:06;37.50;33.00;24.00
50866;PMS7003;36839;51.946;21.002;2023-04-25T01:33:35;35.50;30.50;22.50
50866;PMS7003;36839;51.946;21.002;2023-04-25T01:36:06;40.50;33.00;24.00
50866;PMS7003;36839;51.946;21.002;2023-04-25T01:38:34;34.00;31.00;19.50
50866;PMS7003;36839;51.946;21.002;2023-04-25T01:41:02;39.50;32.50;24.00
50866;PMS7003;36839;51.946;21.002;2023-04-25T01:43:30;41.00;32.00;23.00
50866;PMS7003;36839;51.946;21.002;2023-04-25T01:45:58;38.50;31.50;23.00
50866;PMS7003;36839;51.946;21.002;2023-04-25T01:48:26;42.00;36.00;25.00
50866;PMS7003;36839;51.946;21.002;2023-04-25T01:50:54;41.00;35.00;23.50
50866;PMS7003;36839;51.946;21.002;2023-04-25T01:53:21;33.50;32.50;23.50
50866;PMS7003;36839;51.946;21.002;2023-04-25T01:55:49;43.67;36.00;24.67
50866;PMS7003;36839;51.946;21.002;2023-04-25T01:58:17;45.00;35.00;25.00
50866;PMS7003;36839;51.946;21.002;2023-04-25T02:00:44;49.00;39.00;29.00
50866;PMS7003;36839;51.946;21.002;2023-04-25T02:03:11;48.67;40.33;27.33
50866;PMS7003;36839;51.946;21.002;2023-04-25T02:05:38;47.50;34.50;25.50
50866;PMS7003;36839;51.946;21.002;2023-04-25T02:08:06;47.00;38.00;27.00
50866;PMS7003;36839;51.946;21.002;2023-04-25T02:10:33;46.00;37.00;27.00
50866;PMS7003;36839;51.946;21.002;2023-04-25T02:13:02;46.00;37.00;25.00
50866;PMS7003;36839;51.946;21.002;2023-04-25T02:15:32;39.50;32.00;23.00
50866;PMS7003;36839;51.946;21.002;2023-04-25T02:17:59;50.00;39.00;28.00
50866;PMS7003;36839;51.946;21.002;2023-04-25T02:20:30;47.00;39.00;26.00
50866;PMS7003;36839;51.946;21.002;2023-04-25T02:22:58;47.00;37.50;27.00
50866;PMS7003;36839;51.946;21.002;2023-04-25T02:25:29;45.00;37.00;27.00
50866;PMS7003;36839;51.946;21.002;2023-04-25T02:27:56;41.00;34.50;24.00
50866;PMS7003;36839;51.946;21.002;2023-04-25T02:30:24;45.50;36.50;24.00
50866;PMS7003;36839;51.946;21.002;2023-04-25T02:32:53;36.00;33.00;23.00
50866;PMS7003;36839;51.946;21.002;2023-04-25T02:35:21;37.00;34.00;23.00
50866;PMS7003;36839;51.946;21.002;2023-04-25T02:37:49;48.67;36.67;25.00
50866;PMS7003;36839;51.946;21.002;2023-04-25T02:40:17;46.50;34.50;20.00
50866;PMS7003;36839;51.946;21.002;2023-04-25T02:42:44;42.00;35.00;25.00
50866;PMS7003;36839;51.946;21.002;2023-04-25T02:45:13;43.00;35.00;25.00
50866;PMS7003;36839;51.946;21.002;2023-04-25T02:47:43;45.00;34.50;24.00
50866;PMS7003;36839;51.946;21.002;2023-04-25T02:50:10;46.00;34.00;24.50
50866;PMS7003;36839;51.946;21.002;2023-04-25T02:52:38;52.00;39.00;26.00
50866;PMS7003;36839;51.946;21.002;2023-04-25T02:55:06;39.50;35.00;26.50
50866;PMS7003;36839;51.946;21.002;2023-04-25T02:57:34;40.00;36.00;24.00
50866;PMS7003;36839;51.946;21.002;2023-04-25T03:00:03;36.00;32.50;22.50
50866;PMS7003;36839;51.946;21.002;2023-04-25T03:02:44;39.00;34.00;24.00
50866;PMS7003;36839;51.946;21.002;2023-04-25T03:05:13;33.00;31.00;21.00
50866;PMS7003;36839;51.946;21.002;2023-04-25T03:07:41;34.50;30.50;21.00
50866;PMS7003;36839;51.946;21.002;2023-04-25T03:10:13;37.00;30.00;21.00
50866;PMS7003;36839;51.946;21.002;2023-04-25T03:12:40;38.00;33.50;23.50
50866;PMS7003;36839;51.946;21.002;2023-04-25T03:15:09;44.00;33.00;23.00
50866;PMS7003;36839;51.946;21.002;2023-04-25T03:17:36;37.00;34.50;24.00
50866;PMS7003;36839;51.946;21.002;2023-04-25T03:20:05;34.00;29.00;22.00
50866;PMS7003;36839;51.946;21.002;2023-04-25T03:22:35;31.00;30.00;21.00
50866;PMS7003;36839;51.946;21.002;2023-04-25T03:25:03;36.50;33.00;22.50
50866;PMS7003;36839;51.946;21.002;2023-04-25T03:27:30;42.00;34.00;23.00
50866;PMS7003;36839;51.946;21.002;2023-04-25T03:29:57;30.00;26.00;21.00
50866;PMS7003;36839;51.946;21.002;2023-04-25T03:32:24;29.00;28.00;20.00
50866;PMS7003;36839;51.946;21.002;2023-04-25T03:35:00;35.00;32.00;21.00
50866;PMS7003;36839;51.946;21.002;2023-04-25T03:37:27;33.00;27.00;19.00
50866;PMS7003;36839;51.946;21.002;2023-04-25T03:39:56;30.00;26.00;18.00
50866;PMS7003;36839;51.946;21.002;2023-04-25T03:42:25;34.00;31.00;20.00
50866;PMS7003;36839;51.946;21.002;2023-04-25T03:44:52;15.00;15.00;14.00
50866;PMS7003;36839;51.946;21.002;2023-04-25T03:47:21;18.00;15.00;11.00
50866;PMS7003;36839;51.946;21.002;2023-04-25T03:49:48;15.00;13.00;10.00
50866;PMS7003;36839;51.946;21.002;2023-04-25T03:52:23;15.00;13.00;10.00
50866;PMS7003;36839;51.946;21.002;2023-04-25T03:57:19;23.00;16.00;10.00
50866;PMS7003;36839;51.946;21.002;2023-04-25T03:59:47;13.00;12.00;9.00
50866;PMS7003;36839;51.946;21.002;2023-04-25T04:02:15;17.50;14.50;10.50
50866;PMS7003;36839;51.946;21.002;2023-04-25T04:04:44;17.00;13.00;10.00
50866;PMS7003;36839;51.946;21.002;2023-04-25T04:07:12;15.50;12.50;9.50
50866;PMS7003;36839;51.946;21.002;2023-04-25T04:09:41;13.50;13.50;11.00
50866;PMS7003;36839;51.946;21.002;2023-04-25T04:12:09;11.50;11.50;7.00
50866;PMS7003;36839;51.946;21.002;2023-04-25T04:14:37;16.00;14.00;11.00
50866;PMS7003;36839;51.946;21.002;2023-04-25T04:17:06;16.50;13.00;10.00
50866;PMS7003;36839;51.946;21.002;2023-04-25T04:19:35;13.00;13.00;10.00
50866;PMS7003;36839;51.946;21.002;2023-04-25T04:22:03;18.00;14.00;11.00
50866;PMS7003;36839;51.946;21.002;2023-04-25T04:24:30;17.00;16.00;12.00
50866;PMS7003;36839;51.946;21.002;2023-04-25T04:27:02;14.00;14.00;10.00
50866;PMS7003;36839;51.946;21.002;2023-04-25T04:29:29;15.50;15.50;12.50
50866;PMS7003;36839;51.946;21.002;2023-04-25T04:31:58;12.00;11.50;10.00
50866;PMS7003;36839;51.946;21.002;2023-04-25T04:34:25;14.00;13.00;11.00
50866;PMS7003;36839;51.946;21.002;2023-04-25T04:36:53;18.00;15.00;12.00
50866;PMS7003;36839;51.946;21.002;2023-04-25T04:39:20;17.50;16.00;11.50
50866;PMS7003;36839;51.946;21.002;2023-04-25T04:41:49;23.00;18.00;13.00
50866;PMS7003;36839;51.946;21.002;2023-04-25T04:44:18;15.00;13.00;11.00
50866;PMS7003;36839;51.946;21.002;2023-04-25T04:46:46;18.00;15.50;12.50
50866;PMS7003;36839;51.946;21.002;2023-04-25T04:51:45;20.00;17.00;13.00
50866;PMS7003;36839;51.946;21.002;2023-04-25T04:54:13;18.50;16.00;10.50
50866;PMS7003;36839;51.946;21.002;2023-04-25T04:56:42;21.00;16.00;12.00
50866;PMS7003;36839;51.946;21.002;2023-04-25T04:59:09;19.50;18.50;13.00
50866;PMS7003;36839;51.946;21.002;2023-04-25T05:01:36;18.33;18.00;14.67
50866;PMS7003;36839;51.946;21.002;2023-04-25T05:04:05;21.00;19.00;15.00
50866;PMS7003;36839;51.946;21.002;2023-04-25T05:06:34;20.00;19.00;15.00
50866;PMS7003;36839;51.946;21.002;2023-04-25T05:09:03;22.00;22.00;14.00
50866;PMS7003;36839;51.946;21.002;2023-04-25T05:11:31;20.00;18.00;13.00
50866;PMS7003;36839;51.946;21.002;2023-04-25T05:14:03;19.00;19.00;14.00
50866;PMS7003;36839;51.946;21.002;2023-04-25T05:16:31;23.00;19.00;14.00
50866;PMS7003;36839;51.946;21.002;2023-04-25T05:18:58;24.00;20.00;16.00
50866;PMS7003;36839;51.946;21.002;2023-04-25T05:21:25;21.00;21.00;17.00
50866;PMS7003;36839;51.946;21.002;2023-04-25T05:23:53;17.00;17.00;15.00
50866;PMS7003;36839;51.946;21.002;2023-04-25T05:26:29;23.50;22.50;16.00
50866;PMS7003;36839;51.946;21.002;2023-04-25T05:28:57;22.50;20.50;15.00
50866;PMS7003;36839;51.946;21.002;2023-04-25T05:31:26;28.50;26.00;18.50
50866;PMS7003;36839;51.946;21.002;2023-04-25T05:34:07;25.00;23.50;16.50
50866;PMS7003;36839;51.946;21.002;2023-04-25T05:36:35;21.00;21.00;16.00
50866;PMS7003;36839;51.946;21.002;2023-04-25T05:39:02;19.50;17.00;10.50
50866;PMS7003;36839;51.946;21.002;2023-04-25T05:41:44;24.00;23.00;17.00
50866;PMS7003;36839;51.946;21.002;2023-04-25T05:44:11;21.00;20.00;14.00
50866;PMS7003;36839;51.946;21.002;2023-04-25T05:46:39;27.00;26.00;18.50
50866;PMS7003;36839;51.946;21.002;2023-04-25T05:49:06;21.67;21.67;16.33
50866;PMS7003;36839;51.946;21.002;2023-04-25T05:51:33;26.00;24.00;18.00
50866;PMS7003;36839;51.946;21.002;2023-04-25T05:54:03;22.00;22.00;16.00
50866;PMS7003;36839;51.946;21.002;2023-04-25T05:56:34;25.00;23.00;16.50
50866;PMS7003;36839;51.946;21.002;2023-04-25T05:59:03;22.00;22.00;16.00
50866;PMS7003;36839;51.946;21.002;2023-04-25T06:01:30;24.00;17.00;13.00
50866;PMS7003;36839;51.946;21.002;2023-04-25T06:03:59;24.00;22.00;15.00
50866;PMS7003;36839;51.946;21.002;2023-04-25T06:06:27;26.00;23.00;16.00
50866;PMS7003;36839;51.946;21.002;2023-04-25T06:08:55;31.00;26.50;17.50
50866;PMS7003;36839;51.946;21.002;2023-04-25T06:11:25;30.00;23.00;17.00
50866;PMS7003;36839;51.946;21.002;2023-04-25T06:13:54;27.00;22.00;16.00
50866;PMS7003;36839;51.946;21.002;2023-04-25T06:16:23;26.00;24.00;17.00
50866;PMS7003;36839;51.946;21.002;2023-04-25T06:18:53;25.50;23.50;16.00
50866;PMS7003;36839;51.946;21.002;2023-04-25T06:21:21;28.00;27.00;19.00
50866;PMS7003;36839;51.946;21.002;2023-04-25T06:23:54;25.00;23.50;18.00
50866;PMS7003;36839;51.946;21.002;2023-04-25T06:26:22;24.00;21.00;15.50
50866;PMS7003;36839;51.946;21.002;2023-04-25T06:28:50;19.50;19.50;13.50
50866;PMS7003;36839;51.946;21.002;2023-04-25T06:31:17;24.00;21.00;13.50
50866;PMS7003;36839;51.946;21.002;2023-04-25T06:33:45;22.00;18.67;14.33
50866;PMS7003;36839;51.946;21.002;2023-04-25T06:36:14;26.00;22.00;16.00
50866;PMS7003;36839;51.946;21.002;2023-04-25T06:38:45;20.50;19.00;14.00
50866;PMS7003;36839;51.946;21.002;2023-04-25T06:41:23;20.00;20.00;16.00
50866;PMS7003;36839;51.946;21.002;2023-04-25T06:43:52;24.00;21.00;13.00
50866;PMS7003;36839;51.946;21.002;2023-04-25T06:46:19;25.00;22.00;16.00
50866;PMS7003;36839;51.946;21.002;2023-04-25T06:48:49;25.50;24.00;17.00
50866;PMS7003;36839;51.946;21.002;2023-04-25T06:51:20;18.00;18.00;13.00
50866;PMS7003;36839;51.946;21.002;2023-04-25T06:53:53;29.00;23.00;17.00
50866;PMS7003;36839;51.946;21.002;2023-04-25T06:56:21;21.00;20.00;14.00
50866;PMS7003;36839;51.946;21.002;2023-04-25T06:58:52;24.00;21.00;15.00
50866;PMS7003;36839;51.946;21.002;2023-04-25T07:01:22;20.50;19.50;13.50
50866;PMS7003;36839;51.946;21.002;2023-04-25T07:03:50;25.00;23.67;16.67
50866;PMS7003;36839;51.946;21.002;2023-04-25T07:06:17;7.00;6.00;1.00
50866;PMS7003;36839;51.946;21.002;2023-04-25T07:08:45;26.00;21.00;16.00
50866;PMS7003;36839;51.946;21.002;2023-04-25T07:11:15;17.00;17.00;14.00
50866;PMS7003;36839;51.946;21.002;2023-04-25T07:13:44;25.33;23.00;17.67
50866;PMS7003;36839;51.946;21.002;2023-04-25T07:16:12;22.67;19.33;13.67
50866;PMS7003;36839;51.946;21.002;2023-04-25T07:18:42;27.00;23.00;18.00
50866;PMS7003;36839;51.946;21.002;2023-04-25T07:21:11;25.50;23.00;16.00
50866;PMS7003;36839;51.946;21.002;2023-04-25T07:23:40;29.00;27.00;19.00
50866;PMS7003;36839;51.946;21.002;2023-04-25T07:26:11;26.50;25.00;17.50
50866;PMS7003;36839;51.946;21.002;2023-04-25T07:28:40;32.00;24.00;17.50
50866;PMS7003;36839;51.946;21.002;2023-04-25T07:31:08;24.50;20.50;16.00
50866;PMS7003;36839;51.946;21.002;2023-04-25T07:33:36;26.50;23.00;18.00
50866;PMS7003;36839;51.946;21.002;2023-04-25T07:36:04;25.00;23.00;17.00
50866;PMS7003;36839;51.946;21.002;2023-04-25T07:38:32;28.00;24.00;17.50
50866;PMS7003;36839;51.946;21.002;2023-04-25T07:41:01;21.00;18.00;16.00
50866;PMS7003;36839;51.946;21.002;2023-04-25T07:43:42;22.50;21.50;15.50
50866;PMS7003;36839;51.946;21.002;2023-04-25T07:46:09;25.00;22.00;16.00
50866;PMS7003;36839;51.946;21.002;2023-04-25T07:48:39;21.00;21.00;16.00
50866;PMS7003;36839;51.946;21.002;2023-04-25T07:51:06;21.67;20.33;16.00
50866;PMS7003;36839;51.946;21.002;2023-04-25T07:53:32;22.00;20.00;16.00
50866;PMS7003;36839;51.946;21.002;2023-04-25T07:56:02;22.50;22.00;16.50
50866;PMS7003;36839;51.946;21.002;2023-04-25T07:58:32;26.00;23.00;16.50
50866;PMS7003;36839;51.946;21.002;2023-04-25T08:01:01;28.00;23.00;17.00
50866;PMS7003;36839;51.946;21.002;2023-04-25T08:03:28;26.00;22.50;16.00
50866;PMS7003;36839;51.946;21.002;2023-04-25T08:05:55;15.00;15.00;12.00
50866;PMS7003;36839;51.946;21.002;2023-04-25T08:08:23;24.00;19.00;13.00
50866;PMS7003;36839;51.946;21.002;2023-04-25T08:10:50;19.50;19.50;15.50
50866;PMS7003;36839;51.946;21.002;2023-04-25T08:13:17;22.00;20.50;14.50
50866;PMS7003;36839;51.946;21.002;2023-04-25T08:15:44;20.00;15.00;12.00
50866;PMS7003;36839;51.946;21.002;2023-04-25T08:18:13;17.00;15.50;12.00
50866;PMS7003;36839;51.946;21.002;2023-04-25T08:20:40;17.00;17.00;12.00
50866;PMS7003;36839;51.946;21.002;2023-04-25T08:23:09;17.00;17.00;11.00
50866;PMS7003;36839;51.946;21.002;2023-04-25T08:25:40;22.00;16.00;11.50
50866;PMS7003;36839;51.946;21.002;2023-04-25T08:28:07;21.50;19.00;14.00
50866;PMS7003;36839;51.946;21.002;2023-04-25T08:30:34;22.00;22.00;14.00
50866;PMS7003;36839;51.946;21.002;2023-04-25T08:33:02;14.00;14.00;12.00
50866;PMS7003;36839;51.946;21.002;2023-04-25T08:35:30;18.00;13.00;10.00
50866;PMS7003;36839;51.946;21.002;2023-04-25T08:38:00;18.00;16.50;12.00
50866;PMS7003;36839;51.946;21.002;2023-04-25T08:40:28;16.00;15.00;12.00
50866;PMS7003;36839;51.946;21.002;2023-04-25T08:43:01;14.00;12.00;9.00
50866;PMS7003;36839;51.946;21.002;2023-04-25T08:45:33;17.00;14.50;12.00
50866;PMS7003;36839;51.946;21.002;2023-04-25T08:48:01;13.00;13.00;10.00
50866;PMS7003;36839;51.946;21.002;2023-04-25T08:50:51;19.00;15.00;12.00
50866;PMS7003;36839;51.946;21.002;2023-04-25T08:53:26;14.50;14.50;12.00
50866;PMS7003;36839;51.946;21.002;2023-04-25T08:55:54;22.00;19.00;13.00
50866;PMS7003;36839;51.946;21.002;2023-04-25T08:58:23;12.00;12.00;9.00
50866;PMS7003;36839;51.946;21.002;2023-04-25T09:01:01;16.00;13.00;10.00
50866;PMS7003;36839;51.946;21.002;2023-04-25T09:03:28;13.00;13.00;10.00
50866;PMS7003;36839;51.946;21.002;2023-04-25T09:05:59;17.00;13.00;9.00
50866;PMS7003;36839;51.946;21.002;2023-04-25T09:08:30;15.00;13.50;11.00
50866;PMS7003;36839;51.946;21.002;2023-04-25T09:10:57;12.00;12.00;8.00
50866;PMS7003;36839;51.946;21.002;2023-04-25T09:13:26;14.33;14.33;11.00
50866;PMS7003;36839;51.946;21.002;2023-04-25T09:15:55;16.00;15.00;11.00
50866;PMS7003;36839;51.946;21.002;2023-04-25T09:18:28;15.00;12.00;8.00
50866;PMS7003;36839;51.946;21.002;2023-04-25T09:20:56;17.50;14.50;10.00
50866;PMS7003;36839;51.946;21.002;2023-04-25T09:23:23;13.00;12.00;10.00
50866;PMS7003;36839;51.946;21.002;2023-04-25T09:25:52;12.00;12.00;10.00
50866;PMS7003;36839;51.946;21.002;2023-04-25T09:28:23;13.00;13.00;9.00
50866;PMS7003;36839;51.946;21.002;2023-04-25T09:30:56;14.50;14.50;11.00
50866;PMS7003;36839;51.946;21.002;2023-04-25T09:33:41;14.00;13.00;10.00
50866;PMS7003;36839;51.946;21.002;2023-04-25T09:36:10;15.00;13.50;11.00
50866;PMS7003;36839;51.946;21.002;2023-04-25T09:38:45;14.00;13.00;10.50
50866;PMS7003;36839;51.946;21.002;2023-04-25T09:41:15;18.00;15.00;11.00
50866;PMS7003;36839;51.946;21.002;2023-04-25T09:43:48;18.00;17.00;13.00
50866;PMS7003;36839;51.946;21.002;2023-04-25T09:46:16;15.00;14.00;11.00
50866;PMS7003;36839;51.946;21.002;2023-04-25T09:48:49;20.50;14.00;11.00
50866;PMS7003;36839;51.946;21.002;2023-04-25T09:51:17;20.00;16.33;11.33
50866;PMS7003;36839;51.946;21.002;2023-04-25T09:53:45;14.00;14.00;11.00
50866;PMS7003;36839;51.946;21.002;2023-04-25T09:56:16;16.00;16.00;12.00
50866;PMS7003;36839;51.946;21.002;2023-04-25T09:58:43;13.00;13.00;9.00
50866;PMS7003;36839;51.946;21.002;2023-04-25T10:01:19;17.50;12.50;10.00
50866;PMS7003;36839;51.946;21.002;2023-04-25T10:03:48;15.33;14.67;12.00
50866;PMS7003;36839;51.946;21.002;2023-04-25T10:06:19;16.00;16.00;12.50
50866;PMS7003;36839;51.946;21.002;2023-04-25T10:08:49;21.00;18.00;13.00
50866;PMS7003;36839;51.946;21.002;2023-04-25T10:11:18;18.00;16.00;12.00
50866;PMS7003;36839;51.946;21.002;2023-04-25T10:13:45;14.00;13.00;11.00
50866;PMS7003;36839;51.946;21.002;2023-04-25T10:16:16;15.00;15.00;11.00
50866;PMS7003;36839;51.946;21.002;2023-04-25T10:18:45;18.00;16.00;12.00
50866;PMS7003;36839;51.946;21.002;2023-04-25T10:21:15;19.00;19.00;11.50
50866;PMS7003;36839;51.946;21.002;2023-04-25T10:23:43;19.00;19.00;13.00
50866;PMS7003;36839;51.946;21.002;2023-04-25T10:26:13;22.00;19.00;13.00
50866;PMS7003;36839;51.946;21.002;2023-04-25T10:31:44;19.00;19.00;13.00
50866;PMS7003;36839;51.946;21.002;2023-04-25T10:34:17;24.00;20.00;15.00
50866;PMS7003;36839;51.946;21.002;2023-04-25T10:36:51;21.00;20.00;14.00
50866;PMS7003;36839;51.946;21.002;2023-04-25T10:39:23;26.00;23.00;16.00
50866;PMS7003;36839;51.946;21.002;2023-04-25T10:41:53;28.00;23.00;15.00
50866;PMS7003;36839;51.946;21.002;2023-04-25T10:44:26;27.00;21.00;14.00
50866;PMS7003;36839;51.946;21.002;2023-04-25T10:47:00;26.00;23.00;14.00
50866;PMS7003;36839;51.946;21.002;2023-04-25T10:49:34;22.00;19.50;13.00
50866;PMS7003;36839;51.946;21.002;2023-04-25T10:55:02;15.00;14.00;9.50
50866;PMS7003;36839;51.946;21.002;2023-04-25T10:57:40;24.00;20.00;14.00
50866;PMS7003;36839;51.946;21.002;2023-04-25T11:00:13;24.00;20.00;14.00
50866;PMS7003;36839;51.946;21.002;2023-04-25T11:02:52;24.00;19.50;14.00
50866;PMS7003;36839;51.946;21.002;2023-04-25T11:05:36;18.50;15.50;11.50
50866;PMS7003;36839;51.946;21.002;2023-04-25T11:08:11;21.00;19.00;13.00
50866;PMS7003;36839;51.946;21.002;2023-04-25T11:10:43;20.00;20.00;14.50
50866;PMS7003;36839;51.946;21.002;2023-04-25T11:13:11;26.00;15.00;10.00
50866;PMS7003;36839;51.946;21.002;2023-04-25T11:15:43;25.00;21.00;13.00
50866;PMS7003;36839;51.946;21.002;2023-04-25T11:18:15;16.50;15.50;11.50
50866;PMS7003;36839;51.946;21.002;2023-04-25T11:20:44;20.00;17.00;12.00
50866;PMS7003;36839;51.946;21.002;2023-04-25T11:23:11;18.00;18.00;12.00
50866;PMS7003;36839;51.946;21.002;2023-04-25T11:25:39;17.50;16.00;12.50
50866;PMS7003;36839;51.946;21.002;2023-04-25T11:28:10;18.00;16.00;10.00
50866;PMS7003;36839;51.946;21.002;2023-04-25T11:30:38;17.00;16.00;12.00
50866;PMS7003;36839;51.946;21.002;2023-04-25T11:33:07;21.50;17.00;11.50
50866;PMS7003;36839;51.946;21.002;2023-04-25T11:35:36;18.00;13.00;11.00
50866;PMS7003;36839;51.946;21.002;2023-04-25T11:38:05;17.00;16.00;12.00
50866;PMS7003;36839;51.946;21.002;2023-04-25T11:40:32;15.00;14.00;12.00
50866;PMS7003;36839;51.946;21.002;2023-04-25T11:42:59;11.00;11.00;7.00
50866;PMS7003;36839;51.946;21.002;2023-04-25T11:45:30;16.50;14.50;11.50
50866;PMS7003;36839;51.946;21.002;2023-04-25T11:47:58;15.00;11.67;9.00
50866;PMS7003;36839;51.946;21.002;2023-04-25T11:50:29;14.00;14.00;10.00
50866;PMS7003;36839;51.946;21.002;2023-04-25T11:52:57;17.00;12.00;10.00
50866;PMS7003;36839;51.946;21.002;2023-04-25T11:55:25;12.00;12.00;10.00
50866;PMS7003;36839;51.946;21.002;2023-04-25T11:57:53;11.00;11.00;10.00
50866;PMS7003;36839;51.946;21.002;2023-04-25T12:00:23;8.00;8.00;6.00
50866;PMS7003;36839;51.946;21.002;2023-04-25T12:02:55;15.00;13.00;10.00
50866;PMS7003;36839;51.946;21.002;2023-04-25T12:05:25;14.00;13.50;10.50
50866;PMS7003;36839;51.946;21.002;2023-04-25T12:07:55;14.00;13.00;11.00
50866;PMS7003;36839;51.946;21.002;2023-04-25T12:10:24;16.00;14.00;10.00
50866;PMS7003;36839;51.946;21.002;2023-04-25T12:13:16;14.33;14.33;10.00
50866;PMS7003;36839;51.946;21.002;2023-04-25T12:15:45;13.00;11.00;9.00
50866;PMS7003;36839;51.946;21.002;2023-04-25T12:18:12;13.00;13.00;10.50
50866;PMS7003;36839;51.946;21.002;2023-04-25T12:20:41;13.00;11.50;7.00
50866;PMS7003;36839;51.946;21.002;2023-04-25T12:23:09;14.00;14.00;9.67
50866;PMS7003;36839;51.946;21.002;2023-04-25T12:25:41;17.00;14.00;11.00
50866;PMS7003;36839;51.946;21.002;2023-04-25T12:28:10;15.00;14.00;11.00
50866;PMS7003;36839;51.946;21.002;2023-04-25T12:30:54;14.00;12.00;11.00
50866;PMS7003;36839;51.946;21.002;2023-04-25T12:33:33;11.67;11.00;8.00
50866;PMS7003;36839;51.946;21.002;2023-04-25T12:36:03;14.00;14.00;10.00
50866;PMS7003;36839;51.946;21.002;2023-04-25T12:38:36;14.00;14.00;11.50
50866;PMS7003;36839;51.946;21.002;2023-04-25T12:41:03;16.00;14.00;11.00
50866;PMS7003;36839;51.946;21.002;2023-04-25T12:43:30;12.50;12.50;9.00
50866;PMS7003;36839;51.946;21.002;2023-04-25T12:45:58;14.00;14.00;11.00
50866;PMS7003;36839;51.946;21.002;2023-04-25T12:48:25;13.00;12.00;8.00
50866;PMS7003;36839;51.946;21.002;2023-04-25T12:50:54;14.00;12.00;8.50
50866;PMS7003;36839;51.946;21.002;2023-04-25T12:53:22;13.00;13.00;10.00
50866;PMS7003;36839;51.946;21.002;2023-04-25T12:55:49;12.00;12.00;9.00
50866;PMS7003;36839;51.946;21.002;2023-04-25T12:58:30;18.00;14.50;11.00
50866;PMS7003;36839;51.946;21.002;2023-04-25T13:00:57;15.00;13.00;9.00
50866;PMS7003;36839;51.946;21.002;2023-04-25T13:03:25;13.00;13.00;10.50
50866;PMS7003;36839;51.946;21.002;2023-04-25T13:05:53;15.00;13.00;9.00
50866;PMS7003;36839;51.946;21.002;2023-04-25T13:08:21;11.00;11.00;9.00
50866;PMS7003;36839;51.946;21.002;2023-04-25T13:10:48;10.00;10.00;9.00
50866;PMS7003;36839;51.946;21.002;2023-04-25T13:13:15;11.50;11.50;9.00
50866;PMS7003;36839;51.946;21.002;2023-04-25T13:15:43;11.00;9.00;8.00
50866;PMS7003;36839;51.946;21.002;2023-04-25T13:18:13;9.00;9.00;7.00
50866;PMS7003;36839;51.946;21.002;2023-04-25T13:20:51;11.00;10.00;7.00
50866;PMS7003;36839;51.946;21.002;2023-04-25T13:23:19;11.00;10.00;7.00
50866;PMS7003;36839;51.946;21.002;2023-04-25T13:25:48;13.00;13.00;11.00
50866;PMS7003;36839;51.946;21.002;2023-04-25T13:28:16;15.00;13.00;9.00
50866;PMS7003;36839;51.946;21.002;2023-04-25T13:30:43;11.00;10.00;8.00
50866;PMS7003;36839;51.946;21.002;2023-04-25T13:33:11;15.00;11.00;8.50
50866;PMS7003;36839;51.946;21.002;2023-04-25T13:35:41;12.50;12.50;9.50
50866;PMS7003;36839;51.946;21.002;2023-04-25T13:38:20;15.00;12.33;10.00
50866;PMS7003;36839;51.946;21.002;2023-04-25T13:40:52;10.00;10.00;8.00
50866;PMS7003;36839;51.946;21.002;2023-04-25T13:43:21;11.67;10.67;8.00
50866;PMS7003;36839;51.946;21.002;2023-04-25T13:45:51;16.00;12.00;10.00
50866;PMS7003;36839;51.946;21.002;2023-04-25T13:48:18;14.50;14.00;10.50
50866;PMS7003;36839;51.946;21.002;2023-04-25T13:50:47;16.33;13.33;10.67
50866;PMS7003;36839;51.946;21.002;2023-04-25T13:53:15;12.50;12.50;9.00
50866;PMS7003;36839;51.946;21.002;2023-04-25T13:55:42;15.33;13.00;9.33
50866;PMS7003;36839;51.946;21.002;2023-04-25T13:58:09;15.00;15.00;10.00
50866;PMS7003;36839;51.946;21.002;2023-04-25T14:00:37;13.00;13.00;9.33